Friday, April 25, 2014, 3:33 AM EDT
Back to Local

KMPO, Mt Pocono Pocono Mountains

Location: Pocono Summit, PA, United States Lat: 41.133
Local Time: 3:33 AM EDT ( 7:33 GMT) Lon: -75.383
Time Zone: US/Eastern Elev: 1915 ft

Show me the last for .
Show Decoded

2014-04-25 02:53 METAR KMPO 250653Z AUTO 02010KT 10SM CLR 04/M10 A2997 RMK AO2 SLP157 T00391100 =
2014-04-25 01:53 METAR KMPO 250553Z AUTO 01009KT 10SM CLR 04/M10 A3000 RMK AO2 SLP167 T00391100
                 10078 20011 58003 =
2014-04-25 00:53 METAR KMPO 250453Z AUTO 02011KT 10SM CLR 03/M09 A3001 RMK AO2 SLP173 T00331089
                 401111006 =
2014-04-24 23:53 METAR KMPO 250353Z AUTO 31003KT 10SM CLR 04/M08 A3002 RMK AO2 SLP177 T00391083 =
2014-04-24 22:53 METAR KMPO 250253Z AUTO 34008KT 10SM CLR 05/M09 A3001 RMK AO2 SLP173 T00501094
                 52007 =
2014-04-24 21:53 METAR KMPO 250153Z AUTO 33008KT 10SM CLR 06/M11 A3000 RMK AO2 SLP171 T00611111 =
2014-04-24 20:53 METAR KMPO 250053Z AUTO 32010KT 10SM CLR 07/M13 A3000 RMK AO2 SLP170 T00671133 =
2014-04-24 19:53 METAR KMPO 242353Z AUTO 31012G18KT 10SM CLR 08/M13 A2999 RMK AO2 SLP167
                 T00781133 10111 20078 53017 =
2014-04-24 18:53 METAR KMPO 242253Z AUTO 33015G24KT 10SM CLR 09/M14 A2996 RMK AO2 SLP158
                 T00941144 =
2014-04-24 17:53 METAR KMPO 242153Z AUTO 33015G26KT 10SM CLR 11/M14 A2995 RMK AO2 PK WND
                 36026/2148 SLP151 T01061139 =
2014-04-24 16:53 METAR KMPO 242053Z AUTO 34013G23KT 310V010 10SM CLR 11/M11 A2994 RMK AO2 PK WND
                 34026/2038 SLP148 T01061111 58004 $ =
2014-04-24 15:53 METAR KMPO 241953Z AUTO 34016G25KT 10SM CLR 11/M12 A2994 RMK AO2 PK WND
                 31028/1910 SLP149 T01111122 $ =
2014-04-24 14:53 METAR KMPO 241853Z AUTO 34010G26KT 10SM CLR 11/M13 A2995 RMK AO2 PK WND
                 32030/1833 SLP150 T01061128 $ =
2014-04-24 13:53 METAR KMPO 241753Z AUTO 34016G23KT 10SM CLR 10/M09 A2995 RMK AO2 PK WND
                 30030/1716 SLP152 T01001094 10100 20011 57002 $ =
2014-04-24 12:53 METAR KMPO 241653Z AUTO 32013G26KT 10SM CLR 08/M10 A2995 RMK AO2 PK WND
                 31034/1614 SLP152 T00831100 $ =
2014-04-24 09:53 METAR KMPO 241353Z AUTO 32017G27KT 10SM CLR 04/M09 A2994 RMK AO2 PK WND
                 32031/1318 SLP153 T00391089 =
2014-04-24 08:53 METAR KMPO 241253Z AUTO 32020G32KT 10SM CLR 02/M09 A2993 RMK AO2 PK WND
                 34032/1251 SLP151 T00221094 =
2014-04-24 07:53 METAR KMPO 241153Z AUTO 33012G26KT 10SM CLR 01/M08 A2992 RMK AO2 PK WND
                 32026/1144 SLP149 T00111083 10017 21006 53023 =
2014-04-24 06:53 METAR KMPO 241053Z AUTO 31014G22KT 10SM CLR 00/M08 A2989 RMK AO2 SLP139
                 T00001083 =
2014-04-24 05:53 METAR KMPO 240953Z AUTO 31012G19KT 10SM CLR 00/M08 A2987 RMK AO2 SLP129
                 T00001083 =
2014-04-24 04:53 METAR KMPO 240853Z AUTO 31013G19KT 10SM CLR 01/M08 A2985 RMK AO2 PK WND
                 31026/0811 SLP122 T00061083 53003 =
2014-04-24 03:53 METAR KMPO 240753Z AUTO 31015G27KT 10SM CLR 01/M07 A2984 RMK AO2 PK WND
                 31028/0727 SLP119 T00061072 =

Support USWX by starting your Amazon purchase here.